Terminal Aerodrome Forecast
Issued by NWS

Home | Current Version | Previous Version | Text Only | Print | Product List | Glossary On
Versions: 1 2 3 4 5 6 7 8 9 10 11 12 13 14 15 16
000
FTUS44 KEPZ 210500
TAFLRU
TAF
KLRU 210532Z 2106/2206 VRB06KT P6SM VCSH SCT040 BKN080
     FM211200 11007KT P6SM SCT050 BKN120
     FM211900 13010KT P6SM VCTS SCT040CB BKN100=

USA.gov is the U.S. government's official web portal to all federal, state and local government web resources and services.